sensor_id;sensor_type;location;lat;lon;timestamp;P1;durP1;ratioP1;P2;durP2;ratioP2
77332;SDS011;66408;51.326;12.070;2023-06-14T00:01:14;3.45;;;1.95;;
77332;SDS011;66408;51.326;12.070;2023-06-14T00:03:40;2.30;;;1.40;;
77332;SDS011;66408;51.326;12.070;2023-06-14T00:06:07;2.70;;;1.60;;
77332;SDS011;66408;51.326;12.070;2023-06-14T00:08:34;3.00;;;1.80;;
77332;SDS011;66408;51.326;12.070;2023-06-14T00:11:01;3.85;;;1.77;;
77332;SDS011;66408;51.326;12.070;2023-06-14T00:13:27;3.03;;;1.88;;
77332;SDS011;66408;51.326;12.070;2023-06-14T00:15:54;5.55;;;1.85;;
77332;SDS011;66408;51.326;12.070;2023-06-14T00:18:21;4.20;;;1.85;;
77332;SDS011;66408;51.326;12.070;2023-06-14T00:20:50;3.03;;;1.70;;
77332;SDS011;66408;51.326;12.070;2023-06-14T00:23:18;2.92;;;1.65;;
77332;SDS011;66408;51.326;12.070;2023-06-14T00:25:44;4.95;;;1.60;;
77332;SDS011;66408;51.326;12.070;2023-06-14T00:28:11;2.47;;;1.50;;
77332;SDS011;66408;51.326;12.070;2023-06-14T00:30:38;3.38;;;1.83;;
77332;SDS011;66408;51.326;12.070;2023-06-14T00:33:05;2.78;;;2.03;;
77332;SDS011;66408;51.326;12.070;2023-06-14T00:35:31;2.58;;;1.75;;
77332;SDS011;66408;51.326;12.070;2023-06-14T00:37:58;3.78;;;2.00;;
77332;SDS011;66408;51.326;12.070;2023-06-14T00:40:25;2.72;;;1.80;;
77332;SDS011;66408;51.326;12.070;2023-06-14T00:42:52;2.78;;;1.80;;
77332;SDS011;66408;51.326;12.070;2023-06-14T00:45:19;4.85;;;1.80;;
77332;SDS011;66408;51.326;12.070;2023-06-14T00:47:46;2.00;;;1.70;;
77332;SDS011;66408;51.326;12.070;2023-06-14T00:50:14;2.03;;;1.70;;
77332;SDS011;66408;51.326;12.070;2023-06-14T00:52:40;3.35;;;1.80;;
77332;SDS011;66408;51.326;12.070;2023-06-14T00:55:07;4.28;;;1.98;;
77332;SDS011;66408;51.326;12.070;2023-06-14T00:57:34;3.72;;;1.98;;
77332;SDS011;66408;51.326;12.070;2023-06-14T01:00:03;3.92;;;1.90;;
77332;SDS011;66408;51.326;12.070;2023-06-14T01:02:36;2.97;;;2.10;;
77332;SDS011;66408;51.326;12.070;2023-06-14T01:05:04;3.30;;;1.90;;
77332;SDS011;66408;51.326;12.070;2023-06-14T01:13:25;3.88;;;2.15;;
77332;SDS011;66408;51.326;12.070;2023-06-14T01:15:54;3.90;;;1.85;;
77332;SDS011;66408;51.326;12.070;2023-06-14T01:18:23;2.50;;;2.17;;
77332;SDS011;66408;51.326;12.070;2023-06-14T01:20:50;3.80;;;2.00;;
77332;SDS011;66408;51.326;12.070;2023-06-14T01:26:38;3.33;;;2.05;;
77332;SDS011;66408;51.326;12.070;2023-06-14T01:29:12;3.13;;;1.90;;
77332;SDS011;66408;51.326;12.070;2023-06-14T01:31:43;2.95;;;2.13;;
77332;SDS011;66408;51.326;12.070;2023-06-14T01:34:11;4.68;;;1.90;;
77332;SDS011;66408;51.326;12.070;2023-06-14T01:36:38;3.85;;;2.20;;
77332;SDS011;66408;51.326;12.070;2023-06-14T01:39:07;2.58;;;2.10;;
77332;SDS011;66408;51.326;12.070;2023-06-14T01:41:35;3.53;;;2.20;;
77332;SDS011;66408;51.326;12.070;2023-06-14T01:44:02;4.72;;;2.20;;
77332;SDS011;66408;51.326;12.070;2023-06-14T01:48:57;3.25;;;2.30;;
77332;SDS011;66408;51.326;12.070;2023-06-14T01:51:25;3.22;;;2.00;;
77332;SDS011;66408;51.326;12.070;2023-06-14T01:53:51;4.13;;;2.42;;
77332;SDS011;66408;51.326;12.070;2023-06-14T01:56:19;3.08;;;2.15;;
77332;SDS011;66408;51.326;12.070;2023-06-14T01:58:46;4.00;;;2.20;;
77332;SDS011;66408;51.326;12.070;2023-06-14T02:01:13;2.53;;;2.10;;
77332;SDS011;66408;51.326;12.070;2023-06-14T02:03:42;2.70;;;1.95;;
77332;SDS011;66408;51.326;12.070;2023-06-14T02:06:11;2.72;;;2.13;;
77332;SDS011;66408;51.326;12.070;2023-06-14T02:08:38;3.25;;;2.10;;
77332;SDS011;66408;51.326;12.070;2023-06-14T02:11:05;3.90;;;2.30;;
77332;SDS011;66408;51.326;12.070;2023-06-14T02:13:31;3.80;;;2.13;;
77332;SDS011;66408;51.326;12.070;2023-06-14T02:15:58;2.95;;;2.22;;
77332;SDS011;66408;51.326;12.070;2023-06-14T02:18:26;3.00;;;2.00;;
77332;SDS011;66408;51.326;12.070;2023-06-14T02:20:53;5.15;;;2.40;;
77332;SDS011;66408;51.326;12.070;2023-06-14T02:23:19;3.13;;;2.22;;
77332;SDS011;66408;51.326;12.070;2023-06-14T02:25:46;3.38;;;2.10;;
77332;SDS011;66408;51.326;12.070;2023-06-14T02:28:13;3.20;;;2.45;;
77332;SDS011;66408;51.326;12.070;2023-06-14T02:30:39;2.95;;;2.03;;
77332;SDS011;66408;51.326;12.070;2023-06-14T02:33:07;5.57;;;2.20;;
77332;SDS011;66408;51.326;12.070;2023-06-14T02:35:33;4.05;;;2.08;;
77332;SDS011;66408;51.326;12.070;2023-06-14T02:38:00;4.15;;;2.22;;
77332;SDS011;66408;51.326;12.070;2023-06-14T02:40:27;3.33;;;2.40;;
77332;SDS011;66408;51.326;12.070;2023-06-14T02:42:53;3.55;;;2.20;;
77332;SDS011;66408;51.326;12.070;2023-06-14T02:45:20;5.65;;;2.35;;
77332;SDS011;66408;51.326;12.070;2023-06-14T02:47:47;3.33;;;2.30;;
77332;SDS011;66408;51.326;12.070;2023-06-14T02:50:15;3.08;;;2.17;;
77332;SDS011;66408;51.326;12.070;2023-06-14T02:52:42;3.30;;;2.38;;
77332;SDS011;66408;51.326;12.070;2023-06-14T02:55:11;3.92;;;2.00;;
77332;SDS011;66408;51.326;12.070;2023-06-14T02:57:37;3.22;;;2.10;;
77332;SDS011;66408;51.326;12.070;2023-06-14T03:00:04;3.95;;;2.35;;
77332;SDS011;66408;51.326;12.070;2023-06-14T03:02:36;3.90;;;2.03;;
77332;SDS011;66408;51.326;12.070;2023-06-14T03:05:02;3.10;;;2.00;;
77332;SDS011;66408;51.326;12.070;2023-06-14T03:07:30;5.03;;;2.20;;
77332;SDS011;66408;51.326;12.070;2023-06-14T03:09:56;3.83;;;2.08;;
77332;SDS011;66408;51.326;12.070;2023-06-14T03:12:23;3.83;;;2.15;;
77332;SDS011;66408;51.326;12.070;2023-06-14T03:14:50;3.25;;;2.20;;
77332;SDS011;66408;51.326;12.070;2023-06-14T03:17:17;3.08;;;1.88;;
77332;SDS011;66408;51.326;12.070;2023-06-14T03:19:45;3.22;;;2.10;;
77332;SDS011;66408;51.326;12.070;2023-06-14T03:22:12;2.88;;;2.08;;
77332;SDS011;66408;51.326;12.070;2023-06-14T03:24:38;5.38;;;2.40;;
77332;SDS011;66408;51.326;12.070;2023-06-14T03:27:05;2.78;;;2.03;;
77332;SDS011;66408;51.326;12.070;2023-06-14T03:29:32;4.10;;;2.30;;
77332;SDS011;66408;51.326;12.070;2023-06-14T03:32:02;3.58;;;2.20;;
77332;SDS011;66408;51.326;12.070;2023-06-14T03:34:29;3.97;;;2.03;;
77332;SDS011;66408;51.326;12.070;2023-06-14T03:36:56;2.70;;;2.00;;
77332;SDS011;66408;51.326;12.070;2023-06-14T03:39:23;4.35;;;2.40;;
77332;SDS011;66408;51.326;12.070;2023-06-14T03:41:50;3.97;;;2.20;;
77332;SDS011;66408;51.326;12.070;2023-06-14T03:44:17;3.13;;;2.15;;
77332;SDS011;66408;51.326;12.070;2023-06-14T03:46:45;5.18;;;2.10;;
77332;SDS011;66408;51.326;12.070;2023-06-14T03:49:12;7.40;;;2.47;;
77332;SDS011;66408;51.326;12.070;2023-06-14T03:51:39;4.18;;;2.40;;
77332;SDS011;66408;51.326;12.070;2023-06-14T03:54:06;3.85;;;1.95;;
77332;SDS011;66408;51.326;12.070;2023-06-14T03:56:53;4.20;;;2.03;;
77332;SDS011;66408;51.326;12.070;2023-06-14T03:59:25;5.60;;;2.15;;
77332;SDS011;66408;51.326;12.070;2023-06-14T04:01:53;6.75;;;2.00;;
77332;SDS011;66408;51.326;12.070;2023-06-14T04:04:21;3.22;;;1.80;;
77332;SDS011;66408;51.326;12.070;2023-06-14T04:06:47;5.40;;;2.00;;
77332;SDS011;66408;51.326;12.070;2023-06-14T04:09:14;2.38;;;1.73;;
77332;SDS011;66408;51.326;12.070;2023-06-14T04:11:41;2.67;;;1.77;;
77332;SDS011;66408;51.326;12.070;2023-06-14T04:14:08;2.70;;;1.70;;
77332;SDS011;66408;51.326;12.070;2023-06-14T04:16:35;3.05;;;1.95;;
77332;SDS011;66408;51.326;12.070;2023-06-14T04:19:02;2.38;;;1.60;;
77332;SDS011;66408;51.326;12.070;2023-06-14T04:21:28;4.07;;;2.00;;
77332;SDS011;66408;51.326;12.070;2023-06-14T04:23:55;3.45;;;2.20;;
77332;SDS011;66408;51.326;12.070;2023-06-14T04:26:22;2.95;;;2.00;;
77332;SDS011;66408;51.326;12.070;2023-06-14T04:28:52;3.58;;;1.73;;
77332;SDS011;66408;51.326;12.070;2023-06-14T04:31:23;3.33;;;2.10;;
77332;SDS011;66408;51.326;12.070;2023-06-14T04:33:52;2.83;;;2.10;;
77332;SDS011;66408;51.326;12.070;2023-06-14T04:36:20;4.10;;;2.65;;
77332;SDS011;66408;51.326;12.070;2023-06-14T04:38:46;5.70;;;2.30;;
77332;SDS011;66408;51.326;12.070;2023-06-14T04:41:15;2.90;;;2.13;;
77332;SDS011;66408;51.326;12.070;2023-06-14T04:43:42;4.97;;;2.20;;
77332;SDS011;66408;51.326;12.070;2023-06-14T04:46:09;3.05;;;1.90;;
77332;SDS011;66408;51.326;12.070;2023-06-14T04:48:37;5.00;;;2.60;;
77332;SDS011;66408;51.326;12.070;2023-06-14T04:51:07;3.78;;;2.13;;
77332;SDS011;66408;51.326;12.070;2023-06-14T04:53:35;3.88;;;2.60;;
77332;SDS011;66408;51.326;12.070;2023-06-14T04:56:02;3.00;;;1.92;;
77332;SDS011;66408;51.326;12.070;2023-06-14T04:58:30;5.55;;;2.42;;
77332;SDS011;66408;51.326;12.070;2023-06-14T05:00:57;3.00;;;2.28;;
77332;SDS011;66408;51.326;12.070;2023-06-14T05:03:25;3.72;;;2.33;;
77332;SDS011;66408;51.326;12.070;2023-06-14T05:05:53;3.55;;;2.20;;
77332;SDS011;66408;51.326;12.070;2023-06-14T05:10:52;4.28;;;1.95;;
77332;SDS011;66408;51.326;12.070;2023-06-14T05:13:19;3.50;;;2.30;;
77332;SDS011;66408;51.326;12.070;2023-06-14T05:15:47;5.30;;;2.45;;
77332;SDS011;66408;51.326;12.070;2023-06-14T05:18:13;3.60;;;2.50;;
77332;SDS011;66408;51.326;12.070;2023-06-14T05:20:42;6.78;;;2.65;;
77332;SDS011;66408;51.326;12.070;2023-06-14T05:23:09;3.85;;;2.13;;
77332;SDS011;66408;51.326;12.070;2023-06-14T05:25:44;3.50;;;2.50;;
77332;SDS011;66408;51.326;12.070;2023-06-14T05:28:12;3.63;;;2.38;;
77332;SDS011;66408;51.326;12.070;2023-06-14T05:30:39;3.92;;;2.65;;
77332;SDS011;66408;51.326;12.070;2023-06-14T05:33:06;5.03;;;2.90;;
77332;SDS011;66408;51.326;12.070;2023-06-14T05:35:33;3.70;;;2.53;;
77332;SDS011;66408;51.326;12.070;2023-06-14T05:37:59;5.63;;;2.63;;
77332;SDS011;66408;51.326;12.070;2023-06-14T05:40:26;3.63;;;2.58;;
77332;SDS011;66408;51.326;12.070;2023-06-14T05:42:53;4.28;;;2.70;;
77332;SDS011;66408;51.326;12.070;2023-06-14T05:45:20;5.28;;;2.60;;
77332;SDS011;66408;51.326;12.070;2023-06-14T05:47:46;5.40;;;3.03;;
77332;SDS011;66408;51.326;12.070;2023-06-14T05:50:13;5.55;;;2.90;;
77332;SDS011;66408;51.326;12.070;2023-06-14T05:52:39;4.22;;;2.67;;
77332;SDS011;66408;51.326;12.070;2023-06-14T05:55:06;5.07;;;2.90;;
77332;SDS011;66408;51.326;12.070;2023-06-14T05:57:33;5.25;;;2.90;;
77332;SDS011;66408;51.326;12.070;2023-06-14T06:00:00;4.00;;;2.63;;
77332;SDS011;66408;51.326;12.070;2023-06-14T06:02:27;4.13;;;2.75;;
77332;SDS011;66408;51.326;12.070;2023-06-14T06:04:53;4.13;;;2.85;;
77332;SDS011;66408;51.326;12.070;2023-06-14T06:07:20;4.75;;;3.08;;
77332;SDS011;66408;51.326;12.070;2023-06-14T06:09:46;5.82;;;3.20;;
77332;SDS011;66408;51.326;12.070;2023-06-14T06:12:14;4.70;;;3.15;;
77332;SDS011;66408;51.326;12.070;2023-06-14T06:14:42;4.25;;;2.75;;
77332;SDS011;66408;51.326;12.070;2023-06-14T06:17:09;5.00;;;3.22;;
77332;SDS011;66408;51.326;12.070;2023-06-14T06:19:36;6.78;;;3.00;;
77332;SDS011;66408;51.326;12.070;2023-06-14T06:22:02;4.22;;;3.00;;
77332;SDS011;66408;51.326;12.070;2023-06-14T06:24:32;5.70;;;3.00;;
77332;SDS011;66408;51.326;12.070;2023-06-14T06:26:59;6.82;;;3.38;;
77332;SDS011;66408;51.326;12.070;2023-06-14T06:29:26;3.53;;;2.72;;
77332;SDS011;66408;51.326;12.070;2023-06-14T06:31:53;5.03;;;3.20;;
77332;SDS011;66408;51.326;12.070;2023-06-14T06:34:19;5.05;;;3.30;;
77332;SDS011;66408;51.326;12.070;2023-06-14T06:36:46;4.63;;;2.63;;
77332;SDS011;66408;51.326;12.070;2023-06-14T06:39:13;5.90;;;2.90;;
77332;SDS011;66408;51.326;12.070;2023-06-14T06:41:41;4.47;;;3.20;;
77332;SDS011;66408;51.326;12.070;2023-06-14T06:44:08;5.75;;;3.30;;
77332;SDS011;66408;51.326;12.070;2023-06-14T06:46:36;4.45;;;3.25;;
77332;SDS011;66408;51.326;12.070;2023-06-14T06:49:07;8.55;;;3.10;;
77332;SDS011;66408;51.326;12.070;2023-06-14T06:51:35;5.53;;;2.97;;
77332;SDS011;66408;51.326;12.070;2023-06-14T06:56:30;4.63;;;3.10;;
77332;SDS011;66408;51.326;12.070;2023-06-14T06:58:58;6.30;;;2.85;;
77332;SDS011;66408;51.326;12.070;2023-06-14T07:01:24;4.65;;;2.83;;
77332;SDS011;66408;51.326;12.070;2023-06-14T07:03:52;4.55;;;2.90;;
77332;SDS011;66408;51.326;12.070;2023-06-14T07:06:19;8.10;;;2.97;;
77332;SDS011;66408;51.326;12.070;2023-06-14T07:08:46;3.50;;;3.05;;
77332;SDS011;66408;51.326;12.070;2023-06-14T07:11:14;3.78;;;2.80;;
77332;SDS011;66408;51.326;12.070;2023-06-14T07:13:41;4.35;;;2.85;;
77332;SDS011;66408;51.326;12.070;2023-06-14T07:16:08;4.30;;;2.90;;
77332;SDS011;66408;51.326;12.070;2023-06-14T07:18:34;4.43;;;2.60;;
77332;SDS011;66408;51.326;12.070;2023-06-14T07:21:01;4.40;;;3.20;;
77332;SDS011;66408;51.326;12.070;2023-06-14T07:23:28;3.35;;;2.70;;
77332;SDS011;66408;51.326;12.070;2023-06-14T07:25:54;4.85;;;2.85;;
77332;SDS011;66408;51.326;12.070;2023-06-14T07:28:21;4.85;;;3.30;;
77332;SDS011;66408;51.326;12.070;2023-06-14T07:30:49;4.85;;;2.80;;
77332;SDS011;66408;51.326;12.070;2023-06-14T07:33:17;4.85;;;3.15;;
77332;SDS011;66408;51.326;12.070;2023-06-14T07:35:46;4.88;;;2.83;;
77332;SDS011;66408;51.326;12.070;2023-06-14T07:38:14;4.53;;;3.20;;
77332;SDS011;66408;51.326;12.070;2023-06-14T07:40:40;3.40;;;3.03;;
77332;SDS011;66408;51.326;12.070;2023-06-14T07:43:07;6.60;;;3.03;;
77332;SDS011;66408;51.326;12.070;2023-06-14T07:45:34;5.45;;;2.85;;
77332;SDS011;66408;51.326;12.070;2023-06-14T07:48:00;4.35;;;3.00;;
77332;SDS011;66408;51.326;12.070;2023-06-14T07:50:27;4.93;;;3.28;;
77332;SDS011;66408;51.326;12.070;2023-06-14T07:52:54;4.78;;;3.35;;
77332;SDS011;66408;51.326;12.070;2023-06-14T07:55:21;4.00;;;2.92;;
77332;SDS011;66408;51.326;12.070;2023-06-14T07:57:48;3.63;;;2.85;;
77332;SDS011;66408;51.326;12.070;2023-06-14T08:00:16;3.45;;;2.80;;
77332;SDS011;66408;51.326;12.070;2023-06-14T08:02:46;3.83;;;2.92;;
77332;SDS011;66408;51.326;12.070;2023-06-14T08:05:13;3.50;;;2.88;;
77332;SDS011;66408;51.326;12.070;2023-06-14T08:07:40;4.25;;;2.90;;
77332;SDS011;66408;51.326;12.070;2023-06-14T08:10:08;4.90;;;2.85;;
77332;SDS011;66408;51.326;12.070;2023-06-14T08:12:34;3.85;;;2.45;;
77332;SDS011;66408;51.326;12.070;2023-06-14T08:15:03;3.70;;;2.45;;
77332;SDS011;66408;51.326;12.070;2023-06-14T08:17:39;3.50;;;2.67;;
77332;SDS011;66408;51.326;12.070;2023-06-14T08:20:07;3.63;;;2.45;;
77332;SDS011;66408;51.326;12.070;2023-06-14T08:22:34;3.75;;;2.58;;
77332;SDS011;66408;51.326;12.070;2023-06-14T08:25:02;4.70;;;2.95;;
77332;SDS011;66408;51.326;12.070;2023-06-14T08:27:30;4.22;;;2.78;;
77332;SDS011;66408;51.326;12.070;2023-06-14T08:29:57;6.32;;;3.20;;
77332;SDS011;66408;51.326;12.070;2023-06-14T08:32:23;4.05;;;2.70;;
77332;SDS011;66408;51.326;12.070;2023-06-14T08:34:50;4.65;;;2.85;;
77332;SDS011;66408;51.326;12.070;2023-06-14T08:37:30;3.30;;;2.63;;
77332;SDS011;66408;51.326;12.070;2023-06-14T08:39:57;3.28;;;2.40;;
77332;SDS011;66408;51.326;12.070;2023-06-14T08:42:24;3.58;;;2.50;;
77332;SDS011;66408;51.326;12.070;2023-06-14T08:44:57;3.20;;;2.67;;
77332;SDS011;66408;51.326;12.070;2023-06-14T08:47:25;3.13;;;2.60;;
77332;SDS011;66408;51.326;12.070;2023-06-14T08:49:53;3.72;;;2.90;;
77332;SDS011;66408;51.326;12.070;2023-06-14T08:52:23;4.55;;;3.20;;
77332;SDS011;66408;51.326;12.070;2023-06-14T08:54:56;5.78;;;3.17;;
77332;SDS011;66408;51.326;12.070;2023-06-14T08:57:23;3.85;;;3.20;;
77332;SDS011;66408;51.326;12.070;2023-06-14T08:59:51;3.53;;;2.78;;
77332;SDS011;66408;51.326;12.070;2023-06-14T09:02:19;4.22;;;3.10;;
77332;SDS011;66408;51.326;12.070;2023-06-14T09:04:48;5.25;;;3.28;;
77332;SDS011;66408;51.326;12.070;2023-06-14T09:07:18;3.67;;;3.20;;
77332;SDS011;66408;51.326;12.070;2023-06-14T09:09:45;6.63;;;3.75;;
77332;SDS011;66408;51.326;12.070;2023-06-14T09:12:31;3.58;;;3.28;;
77332;SDS011;66408;51.326;12.070;2023-06-14T09:14:59;4.28;;;2.92;;
77332;SDS011;66408;51.326;12.070;2023-06-14T09:17:26;4.32;;;2.85;;
77332;SDS011;66408;51.326;12.070;2023-06-14T09:19:54;3.90;;;2.92;;
77332;SDS011;66408;51.326;12.070;2023-06-14T09:22:21;3.60;;;3.00;;
77332;SDS011;66408;51.326;12.070;2023-06-14T09:24:48;4.20;;;3.13;;
77332;SDS011;66408;51.326;12.070;2023-06-14T09:27:15;4.32;;;3.22;;
77332;SDS011;66408;51.326;12.070;2023-06-14T09:29:42;4.25;;;3.08;;
77332;SDS011;66408;51.326;12.070;2023-06-14T09:32:09;4.20;;;2.97;;
77332;SDS011;66408;51.326;12.070;2023-06-14T09:34:36;2.90;;;2.55;;
77332;SDS011;66408;51.326;12.070;2023-06-14T09:37:03;2.95;;;2.50;;
77332;SDS011;66408;51.326;12.070;2023-06-14T09:39:30;4.47;;;2.80;;
77332;SDS011;66408;51.326;12.070;2023-06-14T09:41:57;3.53;;;2.70;;
77332;SDS011;66408;51.326;12.070;2023-06-14T09:44:25;4.32;;;2.70;;
77332;SDS011;66408;51.326;12.070;2023-06-14T09:46:55;3.92;;;2.90;;
77332;SDS011;66408;51.326;12.070;2023-06-14T09:49:22;3.22;;;2.50;;
77332;SDS011;66408;51.326;12.070;2023-06-14T09:51:52;3.30;;;2.80;;
77332;SDS011;66408;51.326;12.070;2023-06-14T09:54:23;4.03;;;2.33;;
77332;SDS011;66408;51.326;12.070;2023-06-14T09:56:52;3.80;;;2.70;;
77332;SDS011;66408;51.326;12.070;2023-06-14T09:59:19;3.05;;;2.45;;
77332;SDS011;66408;51.326;12.070;2023-06-14T10:01:57;3.72;;;2.33;;
77332;SDS011;66408;51.326;12.070;2023-06-14T10:04:26;4.63;;;2.60;;
77332;SDS011;66408;51.326;12.070;2023-06-14T10:06:56;2.92;;;2.28;;
77332;SDS011;66408;51.326;12.070;2023-06-14T10:09:23;3.95;;;2.55;;
77332;SDS011;66408;51.326;12.070;2023-06-14T10:11:50;3.20;;;2.42;;
77332;SDS011;66408;51.326;12.070;2023-06-14T10:14:17;2.58;;;2.38;;
77332;SDS011;66408;51.326;12.070;2023-06-14T10:16:52;2.80;;;2.55;;
77332;SDS011;66408;51.326;12.070;2023-06-14T10:22:11;3.05;;;2.20;;
77332;SDS011;66408;51.326;12.070;2023-06-14T10:24:44;3.60;;;2.33;;
77332;SDS011;66408;51.326;12.070;2023-06-14T10:27:15;2.70;;;2.05;;
77332;SDS011;66408;51.326;12.070;2023-06-14T10:32:20;2.78;;;2.20;;
77332;SDS011;66408;51.326;12.070;2023-06-14T10:34:53;4.28;;;2.10;;
77332;SDS011;66408;51.326;12.070;2023-06-14T10:37:22;3.03;;;2.03;;
77332;SDS011;66408;51.326;12.070;2023-06-14T10:39:49;2.50;;;2.20;;
77332;SDS011;66408;51.326;12.070;2023-06-14T10:42:16;2.38;;;1.90;;
77332;SDS011;66408;51.326;12.070;2023-06-14T10:44:45;2.58;;;1.80;;
77332;SDS011;66408;51.326;12.070;2023-06-14T10:47:34;1.98;;;1.73;;
77332;SDS011;66408;51.326;12.070;2023-06-14T10:50:07;3.28;;;2.10;;
77332;SDS011;66408;51.326;12.070;2023-06-14T10:52:41;4.00;;;2.42;;
77332;SDS011;66408;51.326;12.070;2023-06-14T10:55:13;2.10;;;1.83;;
77332;SDS011;66408;51.326;12.070;2023-06-14T10:57:52;4.32;;;2.08;;
77332;SDS011;66408;51.326;12.070;2023-06-14T11:00:25;2.33;;;2.05;;
77332;SDS011;66408;51.326;12.070;2023-06-14T11:05:53;2.55;;;2.08;;
77332;SDS011;66408;51.326;12.070;2023-06-14T11:10:56;2.72;;;2.17;;
77332;SDS011;66408;51.326;12.070;2023-06-14T11:13:26;4.15;;;2.42;;
77332;SDS011;66408;51.326;12.070;2023-06-14T11:15:57;3.15;;;2.17;;
77332;SDS011;66408;51.326;12.070;2023-06-14T11:18:24;2.80;;;2.00;;
77332;SDS011;66408;51.326;12.070;2023-06-14T11:20:51;3.65;;;2.53;;
77332;SDS011;66408;51.326;12.070;2023-06-14T11:23:18;2.97;;;2.28;;
77332;SDS011;66408;51.326;12.070;2023-06-14T11:25:51;3.30;;;2.47;;
77332;SDS011;66408;51.326;12.070;2023-06-14T11:28:18;3.00;;;2.30;;
77332;SDS011;66408;51.326;12.070;2023-06-14T11:31:01;2.55;;;2.05;;
77332;SDS011;66408;51.326;12.070;2023-06-14T11:33:29;2.97;;;2.35;;
77332;SDS011;66408;51.326;12.070;2023-06-14T11:35:56;3.60;;;1.92;;
77332;SDS011;66408;51.326;12.070;2023-06-14T11:38:23;3.00;;;2.20;;
77332;SDS011;66408;51.326;12.070;2023-06-14T11:40:50;2.40;;;1.90;;
77332;SDS011;66408;51.326;12.070;2023-06-14T11:43:16;2.28;;;1.88;;
77332;SDS011;66408;51.326;12.070;2023-06-14T11:45:43;2.75;;;2.33;;
77332;SDS011;66408;51.326;12.070;2023-06-14T11:48:38;3.03;;;1.80;;
77332;SDS011;66408;51.326;12.070;2023-06-14T11:51:07;2.92;;;2.00;;
77332;SDS011;66408;51.326;12.070;2023-06-14T11:53:34;2.25;;;1.88;;
77332;SDS011;66408;51.326;12.070;2023-06-14T11:56:02;3.25;;;1.67;;
77332;SDS011;66408;51.326;12.070;2023-06-14T11:58:29;2.90;;;2.03;;
77332;SDS011;66408;51.326;12.070;2023-06-14T12:00:56;2.60;;;2.15;;
77332;SDS011;66408;51.326;12.070;2023-06-14T12:03:24;6.03;;;2.03;;
77332;SDS011;66408;51.326;12.070;2023-06-14T12:06:12;2.35;;;1.88;;
77332;SDS011;66408;51.326;12.070;2023-06-14T12:08:38;2.28;;;1.73;;
77332;SDS011;66408;51.326;12.070;2023-06-14T12:11:15;2.65;;;1.80;;
77332;SDS011;66408;51.326;12.070;2023-06-14T12:13:43;2.92;;;1.70;;
77332;SDS011;66408;51.326;12.070;2023-06-14T12:16:10;2.50;;;1.67;;
77332;SDS011;66408;51.326;12.070;2023-06-14T12:18:39;2.97;;;1.88;;
77332;SDS011;66408;51.326;12.070;2023-06-14T12:21:08;2.38;;;1.90;;
77332;SDS011;66408;51.326;12.070;2023-06-14T12:23:42;2.40;;;1.48;;
77332;SDS011;66408;51.326;12.070;2023-06-14T12:26:16;2.10;;;1.63;;
77332;SDS011;66408;51.326;12.070;2023-06-14T12:28:47;3.28;;;1.77;;
77332;SDS011;66408;51.326;12.070;2023-06-14T12:31:14;1.90;;;1.58;;
77332;SDS011;66408;51.326;12.070;2023-06-14T12:33:42;3.75;;;1.85;;
77332;SDS011;66408;51.326;12.070;2023-06-14T12:36:09;3.67;;;1.83;;
77332;SDS011;66408;51.326;12.070;2023-06-14T12:38:37;2.33;;;1.65;;
77332;SDS011;66408;51.326;12.070;2023-06-14T12:41:03;2.28;;;1.50;;
77332;SDS011;66408;51.326;12.070;2023-06-14T12:43:30;2.03;;;1.70;;
77332;SDS011;66408;51.326;12.070;2023-06-14T12:45:57;1.85;;;1.50;;
77332;SDS011;66408;51.326;12.070;2023-06-14T12:48:24;2.38;;;1.77;;
77332;SDS011;66408;51.326;12.070;2023-06-14T12:50:51;2.55;;;1.65;;
77332;SDS011;66408;51.326;12.070;2023-06-14T12:53:17;4.93;;;1.83;;
77332;SDS011;66408;51.326;12.070;2023-06-14T12:55:44;2.30;;;1.77;;
77332;SDS011;66408;51.326;12.070;2023-06-14T12:58:11;2.55;;;1.92;;
77332;SDS011;66408;51.326;12.070;2023-06-14T13:00:40;2.30;;;1.88;;
77332;SDS011;66408;51.326;12.070;2023-06-14T13:03:06;2.95;;;1.80;;
77332;SDS011;66408;51.326;12.070;2023-06-14T13:05:33;2.15;;;1.92;;
77332;SDS011;66408;51.326;12.070;2023-06-14T13:08:00;2.80;;;2.20;;
77332;SDS011;66408;51.326;12.070;2023-06-14T13:10:27;2.72;;;2.10;;
77332;SDS011;66408;51.326;12.070;2023-06-14T13:12:54;3.05;;;2.25;;
77332;SDS011;66408;51.326;12.070;2023-06-14T13:15:21;2.50;;;2.30;;
77332;SDS011;66408;51.326;12.070;2023-06-14T13:17:47;2.20;;;1.90;;
77332;SDS011;66408;51.326;12.070;2023-06-14T13:20:15;2.72;;;2.20;;
77332;SDS011;66408;51.326;12.070;2023-06-14T13:22:46;2.63;;;1.92;;
77332;SDS011;66408;51.326;12.070;2023-06-14T13:25:13;5.28;;;2.97;;
77332;SDS011;66408;51.326;12.070;2023-06-14T13:27:39;3.05;;;2.17;;
77332;SDS011;66408;51.326;12.070;2023-06-14T13:30:06;3.35;;;2.38;;
77332;SDS011;66408;51.326;12.070;2023-06-14T13:32:33;3.00;;;2.25;;
77332;SDS011;66408;51.326;12.070;2023-06-14T13:35:00;2.85;;;2.40;;
77332;SDS011;66408;51.326;12.070;2023-06-14T13:37:27;3.15;;;2.28;;
77332;SDS011;66408;51.326;12.070;2023-06-14T13:39:54;4.22;;;2.50;;
77332;SDS011;66408;51.326;12.070;2023-06-14T13:42:22;3.55;;;2.47;;
77332;SDS011;66408;51.326;12.070;2023-06-14T13:44:50;2.80;;;2.00;;
77332;SDS011;66408;51.326;12.070;2023-06-14T13:49:45;3.20;;;2.25;;
77332;SDS011;66408;51.326;12.070;2023-06-14T13:52:12;3.80;;;2.53;;
77332;SDS011;66408;51.326;12.070;2023-06-14T13:54:39;4.03;;;2.97;;
77332;SDS011;66408;51.326;12.070;2023-06-14T13:57:06;4.10;;;2.53;;
77332;SDS011;66408;51.326;12.070;2023-06-14T13:59:34;2.90;;;2.38;;
77332;SDS011;66408;51.326;12.070;2023-06-14T14:02:01;3.83;;;2.85;;
77332;SDS011;66408;51.326;12.070;2023-06-14T14:04:28;2.92;;;2.40;;
77332;SDS011;66408;51.326;12.070;2023-06-14T14:06:55;3.85;;;2.47;;
77332;SDS011;66408;51.326;12.070;2023-06-14T14:09:22;4.03;;;2.75;;
77332;SDS011;66408;51.326;12.070;2023-06-14T14:11:48;3.97;;;2.65;;
77332;SDS011;66408;51.326;12.070;2023-06-14T14:14:15;4.32;;;2.90;;
77332;SDS011;66408;51.326;12.070;2023-06-14T14:16:42;4.47;;;2.50;;
77332;SDS011;66408;51.326;12.070;2023-06-14T14:19:08;4.75;;;3.03;;
77332;SDS011;66408;51.326;12.070;2023-06-14T14:21:35;3.75;;;2.47;;
77332;SDS011;66408;51.326;12.070;2023-06-14T14:24:02;2.92;;;2.33;;
77332;SDS011;66408;51.326;12.070;2023-06-14T14:26:29;3.83;;;2.78;;
77332;SDS011;66408;51.326;12.070;2023-06-14T14:28:55;3.60;;;2.42;;
77332;SDS011;66408;51.326;12.070;2023-06-14T14:31:22;4.47;;;3.10;;
77332;SDS011;66408;51.326;12.070;2023-06-14T14:33:48;4.70;;;2.92;;
77332;SDS011;66408;51.326;12.070;2023-06-14T14:36:16;4.55;;;2.80;;
77332;SDS011;66408;51.326;12.070;2023-06-14T14:38:43;4.93;;;2.67;;
77332;SDS011;66408;51.326;12.070;2023-06-14T14:41:09;3.92;;;2.55;;
77332;SDS011;66408;51.326;12.070;2023-06-14T14:43:36;3.63;;;2.67;;
77332;SDS011;66408;51.326;12.070;2023-06-14T14:46:03;3.65;;;2.90;;
77332;SDS011;66408;51.326;12.070;2023-06-14T14:48:29;6.07;;;2.50;;
77332;SDS011;66408;51.326;12.070;2023-06-14T14:50:56;3.25;;;2.40;;
77332;SDS011;66408;51.326;12.070;2023-06-14T14:53:23;2.92;;;2.10;;
77332;SDS011;66408;51.326;12.070;2023-06-14T14:55:49;4.10;;;2.40;;
77332;SDS011;66408;51.326;12.070;2023-06-14T14:58:16;3.05;;;2.13;;
77332;SDS011;66408;51.326;12.070;2023-06-14T15:00:46;3.00;;;2.10;;
77332;SDS011;66408;51.326;12.070;2023-06-14T15:03:13;3.45;;;2.30;;
77332;SDS011;66408;51.326;12.070;2023-06-14T15:05:40;3.25;;;2.28;;
77332;SDS011;66408;51.326;12.070;2023-06-14T15:08:07;3.45;;;2.25;;